createdAt,value
2023-05-06T00:04:44.457Z,98.10
2023-05-06T00:09:48.344Z,98.60
2023-05-06T00:14:51.876Z,98.80
2023-05-06T00:19:56.192Z,99.40
2023-05-06T00:24:59.358Z,99.40
2023-05-06T00:30:02.323Z,99.40
2023-05-06T00:35:06.547Z,99.50
2023-05-06T00:40:10.846Z,99.40
2023-05-06T00:45:13.840Z,99.50
2023-05-06T00:50:17.329Z,99.60
2023-05-06T00:55:21.461Z,99.80
2023-05-06T01:00:24.510Z,99.90
2023-05-06T01:05:52.444Z,99.90
2023-05-06T01:11:15.909Z,99.90
2023-05-06T01:16:23.454Z,99.90
2023-05-06T01:21:34.922Z,99.90
2023-05-06T01:26:38.294Z,99.90
2023-05-06T01:31:50.232Z,99.90
2023-05-06T01:37:21.270Z,99.90
2023-05-06T01:42:26.063Z,99.90
2023-05-06T01:47:29.140Z,99.90
2023-05-06T01:52:31.990Z,99.90
2023-05-06T01:57:35.265Z,99.90
2023-05-06T02:02:38.512Z,99.90
2023-05-06T02:07:41.642Z,99.90
2023-05-06T02:12:44.465Z,99.90
2023-05-06T02:17:47.917Z,99.90
2023-05-06T02:22:51.043Z,99.90
2023-05-06T02:27:53.962Z,99.90
2023-05-06T02:32:57.830Z,99.90
2023-05-06T02:38:01.562Z,99.90
2023-05-06T02:43:04.681Z,99.90
2023-05-06T02:48:07.675Z,99.90
2023-05-06T02:53:13.162Z,99.90
2023-05-06T02:58:16.173Z,99.90
2023-05-06T03:03:19.108Z,99.90
2023-05-06T03:08:22.268Z,99.90
2023-05-06T03:13:25.107Z,99.90
2023-05-06T03:18:28.048Z,99.90
2023-05-06T03:23:31.198Z,99.90
2023-05-06T03:28:34.338Z,99.90
2023-05-06T03:33:37.343Z,99.90
2023-05-06T03:38:41.634Z,99.90
2023-05-06T03:43:44.716Z,99.90
2023-05-06T03:48:47.849Z,99.90
2023-05-06T03:53:52.346Z,99.90
2023-05-06T03:58:57.133Z,99.90
2023-05-06T04:04:00.338Z,99.90
2023-05-06T04:09:06.418Z,99.90
2023-05-06T04:14:09.422Z,99.90
2023-05-06T04:19:13.012Z,99.90
2023-05-06T04:24:18.705Z,99.90
2023-05-06T04:29:21.717Z,99.90
2023-05-06T04:34:25.268Z,99.90
2023-05-06T04:39:28.546Z,99.90
2023-05-06T04:44:34.078Z,99.90
2023-05-06T04:49:37.026Z,99.90
2023-05-06T04:54:39.932Z,99.90
2023-05-06T04:59:42.881Z,99.90
2023-05-06T05:04:45.717Z,99.90
2023-05-06T05:09:49.395Z,99.90
2023-05-06T05:14:52.568Z,99.90
2023-05-06T05:19:55.501Z,99.90
2023-05-06T05:24:58.574Z,99.90
2023-05-06T05:30:01.591Z,99.90
2023-05-06T05:35:06.132Z,99.90
2023-05-06T05:40:10.076Z,99.90
2023-05-06T05:45:12.892Z,99.90
2023-05-06T05:50:15.810Z,99.90
2023-05-06T05:55:18.650Z,99.90
2023-05-06T06:00:21.665Z,99.90
2023-05-06T06:05:24.616Z,99.90
2023-05-06T06:10:27.679Z,99.90
2023-05-06T06:15:31.834Z,99.90
2023-05-06T06:20:36.152Z,99.90
2023-05-06T06:25:39.062Z,99.90
2023-05-06T06:30:42.018Z,99.90
2023-05-06T06:35:45.024Z,99.90
2023-05-06T06:40:47.972Z,99.90
2023-05-06T06:45:51.400Z,99.90
2023-05-06T06:50:54.420Z,99.90
2023-05-06T06:55:57.242Z,99.80
2023-05-06T07:01:00.387Z,99.50
2023-05-06T07:06:03.605Z,99.40
2023-05-06T07:11:06.695Z,98.90
2023-05-06T07:16:09.904Z,98.20
2023-05-06T07:21:12.827Z,98.00
2023-05-06T07:26:15.864Z,97.40
2023-05-06T07:31:21.202Z,96.90
2023-05-06T07:36:24.737Z,96.10
2023-05-06T07:41:28.199Z,95.60
2023-05-06T07:46:31.412Z,95.10
2023-05-06T07:51:34.294Z,94.80
2023-05-06T07:56:37.479Z,94.20
2023-05-06T08:01:40.851Z,93.60
2023-05-06T08:06:43.942Z,93.20
2023-05-06T08:11:47.063Z,92.90
2023-05-06T08:16:51.018Z,92.60
2023-05-06T08:21:55.632Z,92.30
2023-05-06T08:26:58.567Z,92.10
2023-05-06T08:32:01.768Z,92.10
2023-05-06T08:37:04.658Z,91.70
2023-05-06T08:42:12.055Z,91.10
2023-05-06T08:47:15.133Z,90.40
2023-05-06T08:52:19.980Z,89.30
2023-05-06T08:57:22.999Z,87.80
2023-05-06T09:02:26.805Z,87.70
2023-05-06T09:07:30.100Z,87.10
2023-05-06T09:12:38.105Z,86.90
2023-05-06T09:17:41.205Z,86.30
2023-05-06T09:22:44.407Z,84.90
2023-05-06T09:27:47.382Z,82.50
2023-05-06T09:32:53.188Z,82.10
2023-05-06T09:37:56.820Z,81.90
2023-05-06T09:43:03.593Z,79.20
2023-05-06T09:48:08.404Z,79.00
2023-05-06T09:53:13.362Z,76.90
2023-05-06T09:58:17.625Z,73.70
2023-05-06T10:03:22.591Z,72.70
2023-05-06T10:08:26.466Z,71.30
2023-05-06T10:13:31.394Z,69.00
2023-05-06T10:18:37.151Z,68.30
2023-05-06T10:24:11.460Z,68.40
2023-05-06T10:29:15.095Z,67.90
2023-05-06T10:34:21.631Z,68.00
2023-05-06T10:39:25.334Z,67.80
2023-05-06T10:44:58.348Z,68.10
2023-05-06T10:50:33.744Z,67.40
2023-05-06T10:55:40.243Z,68.10
2023-05-06T11:00:57.110Z,65.70
2023-05-06T11:06:00.537Z,64.90
2023-05-06T11:11:48.059Z,64.00
2023-05-06T11:16:52.727Z,62.60
2023-05-06T11:21:58.531Z,60.70
2023-05-06T11:27:01.792Z,60.60
2023-05-06T11:32:21.540Z,60.20
2023-05-06T11:37:27.143Z,60.70
2023-05-06T11:42:30.010Z,61.30
2023-05-06T11:47:33.015Z,61.90
2023-05-06T11:52:36.212Z,61.20
2023-05-06T11:57:44.707Z,61.80
2023-05-06T12:02:47.588Z,62.70
2023-05-06T12:07:51.346Z,63.40
2023-05-06T12:12:54.986Z,64.50
2023-05-06T12:17:58.169Z,65.00
2023-05-06T12:23:15.706Z,65.30
2023-05-06T12:28:26.967Z,65.90
2023-05-06T12:33:45.755Z,65.90
2023-05-06T12:38:57.558Z,65.90
2023-05-06T12:44:00.685Z,66.90
2023-05-06T12:49:03.873Z,66.00
2023-05-06T12:54:30.960Z,66.10
2023-05-06T12:59:36.372Z,66.90
2023-05-06T13:04:39.429Z,66.00
2023-05-06T13:09:44.940Z,67.20
2023-05-06T13:14:47.864Z,67.80
2023-05-06T13:19:51.182Z,70.20
2023-05-06T13:24:54.219Z,70.60
2023-05-06T13:29:57.456Z,71.50
2023-05-06T13:35:00.669Z,72.50
2023-05-06T13:40:05.045Z,73.30
2023-05-06T13:45:09.133Z,74.60
2023-05-06T13:50:12.306Z,76.40
2023-05-06T13:55:16.905Z,78.50
2023-05-06T14:00:22.029Z,80.40
2023-05-06T14:05:25.294Z,83.50
2023-05-06T14:10:28.309Z,86.70
2023-05-06T14:15:31.342Z,90.90
2023-05-06T14:20:34.283Z,93.50
2023-05-06T14:25:37.352Z,97.00
2023-05-06T14:30:41.128Z,99.90
2023-05-06T14:35:46.307Z,99.90
2023-05-06T14:40:50.910Z,99.90
2023-05-06T14:45:54.372Z,99.90
2023-05-06T14:50:57.512Z,99.90
2023-05-06T14:56:00.874Z,99.90
2023-05-06T15:01:04.020Z,99.90
2023-05-06T15:06:06.969Z,99.90
2023-05-06T15:11:10.100Z,99.90
2023-05-06T15:16:13.024Z,99.90
2023-05-06T15:21:17.492Z,99.90
2023-05-06T15:26:21.603Z,99.90
2023-05-06T15:31:24.640Z,99.90
2023-05-06T15:36:27.858Z,99.90
2023-05-06T15:41:36.359Z,99.90
2023-05-06T15:46:39.848Z,96.80
2023-05-06T15:51:42.847Z,95.50
2023-05-06T15:56:46.668Z,94.90
2023-05-06T16:06:56.254Z,92.10
2023-05-06T16:11:59.184Z,91.60
2023-05-06T16:17:02.252Z,90.20
2023-05-06T16:22:05.194Z,90.20
2023-05-06T16:27:08.430Z,89.90
2023-05-06T16:32:11.918Z,89.60
2023-05-06T16:37:15.727Z,89.10
2023-05-06T16:42:18.616Z,89.20
2023-05-06T16:47:24.165Z,90.00
2023-05-06T16:52:28.998Z,90.60
2023-05-06T16:57:33.796Z,91.60
2023-05-06T17:02:37.847Z,92.20
2023-05-06T17:07:41.138Z,92.70
2023-05-06T17:12:44.223Z,93.30
2023-05-06T17:17:47.545Z,94.00
2023-05-06T17:22:50.907Z,94.50
2023-05-06T17:27:54.038Z,95.20
2023-05-06T17:32:57.172Z,95.70
2023-05-06T17:38:00.545Z,96.30
2023-05-06T17:43:03.683Z,96.90
2023-05-06T17:48:06.877Z,97.50
2023-05-06T17:53:10.057Z,98.10
2023-05-06T17:58:13.176Z,98.60
2023-05-06T18:03:16.501Z,99.30
2023-05-06T18:08:19.844Z,99.80
2023-05-06T18:13:23.664Z,99.90
2023-05-06T18:18:26.767Z,99.90
2023-05-06T18:23:30.033Z,99.90
2023-05-06T18:28:40.154Z,99.90
2023-05-06T18:33:43.436Z,99.90
2023-05-06T18:38:46.548Z,99.90
2023-05-06T18:43:49.544Z,99.90
2023-05-06T18:48:52.469Z,99.90
2023-05-06T18:53:55.729Z,99.90
2023-05-06T18:58:59.707Z,99.90
2023-05-06T19:04:02.704Z,99.90
2023-05-06T19:09:10.188Z,99.90
2023-05-06T19:14:13.372Z,99.90
2023-05-06T19:19:16.429Z,99.90
2023-05-06T19:24:19.483Z,99.90
2023-05-06T19:29:22.283Z,99.90
2023-05-06T19:34:25.761Z,99.90
2023-05-06T19:39:28.690Z,99.90
2023-05-06T19:44:31.876Z,99.90
2023-05-06T19:49:34.878Z,99.90
2023-05-06T19:54:37.928Z,99.90
2023-05-06T19:59:41.014Z,99.90
2023-05-06T20:04:44.195Z,99.90
2023-05-06T20:09:47.098Z,99.90
2023-05-06T20:14:50.031Z,99.90
2023-05-06T20:19:53.474Z,99.90
2023-05-06T20:25:13.070Z,99.90
2023-05-06T20:30:16.436Z,99.90
2023-05-06T20:35:19.989Z,99.90
2023-05-06T20:40:23.085Z,99.90
2023-05-06T20:45:26.185Z,99.90
2023-05-06T20:50:30.998Z,99.90
2023-05-06T20:55:34.251Z,99.90
2023-05-06T21:00:37.184Z,99.90
2023-05-06T21:05:40.212Z,99.90
2023-05-06T21:10:44.313Z,99.90
2023-05-06T21:15:47.051Z,99.90
2023-05-06T21:20:49.999Z,99.90
2023-05-06T21:25:53.017Z,99.90
2023-05-06T21:30:56.075Z,99.90
2023-05-06T21:35:58.911Z,99.90
2023-05-06T21:41:01.865Z,99.90
2023-05-06T21:46:04.808Z,99.90
2023-05-06T21:51:07.816Z,99.90
2023-05-06T21:56:11.015Z,99.90
2023-05-06T22:01:14.478Z,99.90
2023-05-06T22:06:17.585Z,99.90
2023-05-06T22:11:22.680Z,99.90
2023-05-06T22:16:25.800Z,99.90
2023-05-06T22:21:31.751Z,99.90
2023-05-06T22:26:34.885Z,99.90
2023-05-06T22:31:38.028Z,99.90
2023-05-06T22:36:41.504Z,99.90
2023-05-06T22:41:44.797Z,99.90
2023-05-06T22:46:47.862Z,99.90
2023-05-06T22:51:50.682Z,99.90
2023-05-06T22:56:53.684Z,99.90
2023-05-06T23:01:56.832Z,99.90
2023-05-06T23:06:59.744Z,99.90
2023-05-06T23:12:02.895Z,99.90
2023-05-06T23:17:07.169Z,99.90
2023-05-06T23:22:10.315Z,99.90
2023-05-06T23:27:13.147Z,99.90
2023-05-06T23:32:16.753Z,99.90
2023-05-06T23:37:19.753Z,99.90
2023-05-06T23:42:22.863Z,99.90
2023-05-06T23:47:26.691Z,99.90
2023-05-06T23:52:29.756Z,99.90
2023-05-06T23:57:32.812Z,99.90
